Time;durP1;ratioP1;P1;durP2;ratioP2;P2;SDS_P1;SDS_P2;PMS_P1;PMS_P2;Temp;Humidity;BMP_temperature;BMP_pressure;BME280_temperature;BME280_humidity;BME280_pressure;Samples;Min_cycle;Max_cycle;Signal;HPM_P1;HPM_P2
2022/08/28 00:00:33;;;;;;;6.75;3.00;;;15.20;99.90;;;;;;5070049;28;20072;-75
2022/08/28 00:02:59;;;;;;;8.65;2.78;;;15.20;99.90;;;;;;5069667;28;20048;-75
2022/08/28 00:05:27;;;;;;;8.07;3.30;;;15.20;99.90;;;;;;5070778;28;20418;-72
2022/08/28 00:07:53;;;;;;;6.75;2.75;;;15.10;99.90;;;;;;5070443;28;20040;-74
2022/08/28 00:10:22;;;;;;;7.20;3.45;;;15.10;99.90;;;;;;5067974;28;20190;-73
2022/08/28 00:12:50;;;;;;;7.05;3.63;;;15.10;99.90;;;;;;5053103;28;20451;-74
2022/08/28 00:15:20;;;;;;;8.85;3.83;;;16.30;99.90;;;;;;5055193;28;20384;-74
2022/08/28 00:17:46;;;;;;;8.50;3.35;;;15.10;99.90;;;;;;5072418;28;20114;-74
2022/08/28 00:20:13;;;;;;;9.52;3.58;;;15.00;99.90;;;;;;5073369;28;20040;-74
2022/08/28 00:22:40;;;;;;;7.20;2.92;;;14.90;99.90;;;;;;5073365;28;20040;-73
2022/08/28 00:25:08;;;;;;;8.63;2.78;;;14.90;99.90;;;;;;5064547;28;20052;-72
2022/08/28 00:27:51;;;;;;;5.13;2.30;;;14.90;99.90;;;;;;5073777;28;20109;-73
2022/08/28 00:30:18;;;;;;;6.88;2.25;;;14.90;99.90;;;;;;5065984;28;20049;-74
2022/08/28 00:32:44;;;;;;;8.40;2.60;;;14.90;99.90;;;;;;5073520;28;20439;-73
2022/08/28 00:35:10;;;;;;;8.80;3.20;;;14.90;99.90;;;;;;5072454;28;20049;-72
2022/08/28 00:37:36;;;;;;;9.80;2.95;;;14.80;99.90;;;;;;5072811;28;20059;-74
2022/08/28 00:40:02;;;;;;;8.20;2.53;;;14.90;99.90;;;;;;5071875;28;20396;-74
2022/08/28 00:42:28;;;;;;;8.93;2.53;;;14.80;99.90;;;;;;5072200;28;20123;-74
2022/08/28 00:44:53;;;;;;;10.52;2.50;;;14.90;99.90;;;;;;5071494;28;20132;-72
2022/08/28 00:47:19;;;;;;;5.50;2.30;;;14.70;99.90;;;;;;5073246;28;20064;-73
2022/08/28 00:49:49;;;;;;;7.68;2.58;;;14.70;99.90;;;;;;5054695;28;20479;-74
2022/08/28 00:52:17;;;;;;;6.32;2.33;;;14.70;99.90;;;;;;5072714;28;20135;-75
2022/08/28 00:54:51;;;;;;;6.88;2.17;;;14.90;99.90;;;;;;5071958;28;20048;-74
2022/08/28 00:57:39;;;;;;;9.45;2.88;;;14.70;99.90;;;;;;5076624;28;20032;-74
2022/08/28 01:00:08;;;;;;;5.88;2.17;;;14.70;99.90;;;;;;5074181;28;20093;-73
2022/08/28 01:02:34;;;;;;;9.13;2.40;;;14.60;99.90;;;;;;5071843;28;20052;-73
2022/08/28 01:04:59;;;;;;;4.75;2.33;;;14.60;99.90;;;;;;5072373;28;20040;-73
2022/08/28 01:07:25;;;;;;;4.88;2.47;;;14.60;99.90;;;;;;5072769;28;20298;-72
2022/08/28 01:09:53;;;;;;;10.00;2.70;;;14.60;99.90;;;;;;5072494;28;20044;-72
2022/08/28 01:12:25;;;;;;;9.02;2.58;;;14.50;99.90;;;;;;5072238;28;20131;-72
2022/08/28 01:14:53;;;;;;;7.22;2.40;;;14.50;99.90;;;;;;5072714;28;20449;-72
2022/08/28 01:17:22;;;;;;;9.73;2.55;;;15.10;99.90;;;;;;5071385;28;20041;-72
2022/08/28 01:20:01;;;;;;;7.82;2.60;;;14.50;99.90;;;;;;5072197;28;20051;-72
2022/08/28 01:22:38;;;;;;;6.43;2.40;;;14.30;99.90;;;;;;5072689;28;20053;-73
2022/08/28 01:25:11;;;;;;;11.70;3.27;;;14.30;99.90;;;;;;5071704;28;20120;-72
2022/08/28 01:27:40;;;;;;;5.70;2.83;;;14.30;99.90;;;;;;5071711;28;20289;-72
2022/08/28 01:30:10;;;;;;;8.45;2.55;;;14.20;99.90;;;;;;5072448;28;20056;-72
2022/08/28 01:32:44;;;;;;;5.80;1.98;;;14.20;99.90;;;;;;5071982;28;20556;-71
2022/08/28 01:35:17;;;;;;;11.50;2.50;;;14.20;99.90;;;;;;5064267;28;20134;-72
2022/08/28 01:37:44;;;;;;;12.48;2.55;;;14.10;99.90;;;;;;5072230;28;20041;-73
2022/08/28 01:40:12;;;;;;;5.07;2.70;;;14.10;99.90;;;;;;5071461;28;20032;-73
2022/08/28 01:42:40;;;;;;;8.07;2.65;;;14.20;99.90;;;;;;5072127;28;20411;-74
2022/08/28 01:45:09;;;;;;;7.97;2.60;;;13.90;99.90;;;;;;5070892;28;20412;-72
2022/08/28 01:47:36;;;;;;;5.90;2.35;;;13.90;99.90;;;;;;5071406;28;20037;-71
2022/08/28 01:50:02;;;;;;;5.90;2.70;;;14.00;99.90;;;;;;5071663;28;20032;-71
2022/08/28 01:52:28;;;;;;;7.68;3.28;;;13.90;99.90;;;;;;5071855;28;20113;-71
2022/08/28 01:54:54;;;;;;;8.20;2.25;;;13.90;99.90;;;;;;5071418;28;20439;-72
2022/08/28 01:57:19;;;;;;;6.80;2.95;;;13.80;99.90;;;;;;5071728;28;20036;-72
2022/08/28 01:59:45;;;;;;;3.30;1.85;;;13.80;99.90;;;;;;5071628;28;20102;-71
2022/08/28 02:02:10;;;;;;;9.20;2.45;;;14.10;99.90;;;;;;5061927;28;20033;-72
2022/08/28 02:04:37;;;;;;;8.38;2.50;;;14.50;99.90;;;;;;5071853;28;20052;-72
2022/08/28 02:07:03;;;;;;;6.32;2.42;;;13.70;99.90;;;;;;5071605;28;20044;-74
2022/08/28 02:09:28;;;;;;;7.72;2.63;;;13.60;99.90;;;;;;5071070;28;20060;-71
2022/08/28 02:11:54;;;;;;;5.85;2.03;;;13.60;99.90;;;;;;5071692;28;20484;-72
2022/08/28 02:14:21;;;;;;;5.38;2.40;;;14.50;99.90;;;;;;5071752;28;20039;-73
2022/08/28 02:16:47;;;;;;;4.53;2.42;;;13.50;99.90;;;;;;5070912;28;20048;-73
2022/08/28 02:19:13;;;;;;;5.40;1.88;;;13.50;99.90;;;;;;5071931;28;20093;-73
2022/08/28 02:21:39;;;;;;;7.40;2.50;;;14.40;99.90;;;;;;5070078;28;20546;-72
2022/08/28 02:24:04;;;;;;;4.68;2.10;;;13.70;99.90;;;;;;5069554;28;20040;-72
2022/08/28 02:26:30;;;;;;;6.75;1.95;;;13.40;99.90;;;;;;5070283;28;20036;-73
2022/08/28 02:28:57;;;;;;;8.38;2.65;;;13.50;99.90;;;;;;5070398;28;20526;-72
2022/08/28 02:31:24;;;;;;;6.07;2.25;;;13.50;99.90;;;;;;5069668;28;20040;-73
2022/08/28 02:33:49;;;;;;;4.90;2.08;;;13.50;99.90;;;;;;5071555;28;20503;-74
2022/08/28 02:36:16;;;;;;;5.18;2.42;;;13.40;99.90;;;;;;5070952;28;20052;-73
2022/08/28 02:38:43;;;;;;;6.40;1.92;;;13.40;99.90;;;;;;5069972;28;20055;-74
2022/08/28 02:41:10;;;;;;;6.85;1.98;;;13.80;99.90;;;;;;5071031;28;20040;-73
2022/08/28 02:43:35;;;;;;;8.20;2.40;;;13.50;99.90;;;;;;5052425;28;20048;-74
2022/08/28 02:46:02;;;;;;;8.18;2.42;;;13.50;99.90;;;;;;5069827;28;20097;-72
2022/08/28 02:48:30;;;;;;;8.60;2.50;;;13.50;99.90;;;;;;5071099;28;20075;-73
2022/08/28 02:51:01;;;;;;;7.35;2.40;;;13.40;99.90;;;;;;5069923;28;20056;-73
2022/08/28 02:53:27;;;;;;;6.00;2.58;;;14.20;99.90;;;;;;5070024;28;20048;-71
2022/08/28 02:55:53;;;;;;;5.38;2.17;;;13.60;99.90;;;;;;5069781;28;20416;-72
2022/08/28 02:58:19;;;;;;;6.28;2.33;;;13.30;99.90;;;;;;5070433;28;20040;-74
2022/08/28 03:00:45;;;;;;;6.68;2.35;;;13.30;99.90;;;;;;5070663;28;20075;-72
2022/08/28 03:03:11;;;;;;;9.85;2.20;;;13.30;99.90;;;;;;5070794;28;20028;-74
2022/08/28 03:05:36;;;;;;;5.82;2.45;;;13.30;99.90;;;;;;5069024;28;20059;-71
2022/08/28 03:08:03;;;;;;;7.95;2.40;;;13.20;99.90;;;;;;5070579;28;20041;-73
2022/08/28 03:10:28;;;;;;;6.10;2.42;;;13.20;99.90;;;;;;5070620;28;20045;-73
2022/08/28 03:12:54;;;;;;;6.05;2.10;;;14.30;99.90;;;;;;5070083;28;20055;-73
2022/08/28 03:15:20;;;;;;;6.30;2.38;;;13.20;99.90;;;;;;5070706;28;20113;-70
2022/08/28 03:17:46;;;;;;;7.32;2.08;;;13.10;99.90;;;;;;5069534;28;20055;-71
2022/08/28 03:20:12;;;;;;;9.45;2.55;;;13.90;99.90;;;;;;5068572;28;20036;-71
2022/08/28 03:25:23;;;;;;;9.75;2.58;;;14.20;99.90;;;;;;5061667;28;20048;-72
2022/08/28 03:27:50;;;;;;;8.15;2.10;;;13.00;99.90;;;;;;5070634;28;20052;-71
2022/08/28 03:30:16;;;;;;;4.63;2.15;;;14.10;99.90;;;;;;5060599;28;20496;-71
2022/08/28 03:32:42;;;;;;;8.30;2.22;;;12.90;99.90;;;;;;5070206;28;20048;-71
2022/08/28 03:35:08;;;;;;;15.05;3.40;;;12.90;99.90;;;;;;5070748;28;20352;-72
2022/08/28 03:37:34;;;;;;;3.63;1.90;;;12.90;99.90;;;;;;5070678;28;20040;-73
2022/08/28 03:40:00;;;;;;;3.72;1.98;;;12.90;99.90;;;;;;5068483;28;20041;-74
2022/08/28 03:42:26;;;;;;;10.32;2.28;;;12.90;99.90;;;;;;5069653;28;20106;-73
2022/08/28 03:44:53;;;;;;;4.20;1.98;;;12.90;99.90;;;;;;5069360;28;20432;-74
2022/08/28 03:47:18;;;;;;;4.30;1.98;;;13.10;99.90;;;;;;5070417;28;20703;-72
2022/08/28 03:49:44;;;;;;;6.20;2.20;;;12.90;99.90;;;;;;5076553;28;20040;-71
2022/08/28 03:52:10;;;;;;;5.20;2.20;;;12.90;99.90;;;;;;5074435;28;20393;-72
2022/08/28 03:54:36;;;;;;;5.00;1.98;;;12.90;99.90;;;;;;5073920;28;20445;-72
2022/08/28 03:57:01;;;;;;;6.95;2.38;;;12.90;99.90;;;;;;5073113;28;20060;-71
2022/08/28 03:59:27;;;;;;;5.53;2.05;;;12.90;99.90;;;;;;5073832;28;20037;-71
2022/08/28 04:01:53;;;;;;;7.40;2.17;;;12.90;99.90;;;;;;5073741;28;20106;-72
2022/08/28 04:04:19;;;;;;;7.18;2.30;;;13.00;99.90;;;;;;5073132;28;20099;-71
2022/08/28 04:06:45;;;;;;;6.38;2.30;;;13.00;99.90;;;;;;5074244;28;20040;-72
2022/08/28 04:09:11;;;;;;;7.78;2.22;;;13.00;99.90;;;;;;5073513;28;20068;-71
2022/08/28 04:11:41;;;;;;;6.32;2.67;;;13.00;99.90;;;;;;5073970;28;20048;-72
2022/08/28 04:14:07;;;;;;;4.93;1.65;;;13.00;99.90;;;;;;5056698;28;20032;-72
2022/08/28 04:16:34;;;;;;;8.18;2.22;;;13.00;99.90;;;;;;5073750;28;20045;-73
2022/08/28 04:18:59;;;;;;;6.40;2.03;;;13.00;99.90;;;;;;5073861;28;20044;-71
2022/08/28 04:21:26;;;;;;;5.32;2.35;;;13.00;99.90;;;;;;5072149;28;20049;-71
2022/08/28 04:23:52;;;;;;;8.07;2.53;;;13.00;99.90;;;;;;5073879;28;20047;-71
2022/08/28 04:26:24;;;;;;;3.40;1.90;;;13.00;99.90;;;;;;5055731;28;20041;-72
2022/08/28 04:28:51;;;;;;;9.15;2.17;;;12.90;99.90;;;;;;5072956;28;20048;-71
2022/08/28 04:31:17;;;;;;;4.88;1.63;;;12.90;99.90;;;;;;5072103;28;20056;-71
2022/08/28 04:33:43;;;;;;;6.60;2.03;;;12.80;99.90;;;;;;5073808;28;20032;-72
2022/08/28 04:36:15;;;;;;;7.45;1.92;;;12.80;99.90;;;;;;5073428;28;20068;-71
2022/08/28 04:38:41;;;;;;;4.38;1.75;;;12.80;99.90;;;;;;5073872;28;20049;-72
2022/08/28 04:41:09;;;;;;;7.63;2.30;;;12.80;99.90;;;;;;5073604;28;20112;-73
2022/08/28 04:43:35;;;;;;;5.18;1.98;;;12.80;99.90;;;;;;5072867;28;20408;-74
2022/08/28 04:46:06;;;;;;;3.55;1.60;;;12.80;99.90;;;;;;5073588;28;20072;-74
2022/08/28 04:48:32;;;;;;;3.90;2.20;;;13.70;99.90;;;;;;5073357;28;20438;-74
2022/08/28 04:50:58;;;;;;;5.07;1.98;;;12.80;99.90;;;;;;5072353;28;20167;-70
2022/08/28 04:53:24;;;;;;;5.90;2.53;;;12.80;99.90;;;;;;5073608;28;20124;-71
2022/08/28 04:55:51;;;;;;;5.32;1.75;;;12.80;99.90;;;;;;5073685;28;20044;-71
2022/08/28 04:58:19;;;;;;;4.07;1.83;;;12.80;99.90;;;;;;5072547;28;20120;-72
2022/08/28 05:00:46;;;;;;;4.22;1.90;;;12.80;99.90;;;;;;5073081;28;20504;-74
2022/08/28 05:03:13;;;;;;;8.70;2.13;;;12.80;99.90;;;;;;5073241;28;20047;-71
2022/08/28 05:05:52;;;;;;;5.47;1.90;;;12.80;99.90;;;;;;5054556;28;20060;-72
2022/08/28 05:08:23;;;;;;;7.05;1.98;;;12.70;99.90;;;;;;5073381;28;20059;-72
2022/08/28 05:10:49;;;;;;;6.93;1.92;;;12.80;99.90;;;;;;5072084;28;20573;-71
2022/08/28 05:13:17;;;;;;;4.53;1.98;;;13.30;99.90;;;;;;5071787;28;20084;-71
2022/08/28 05:15:45;;;;;;;4.93;1.45;;;13.00;99.90;;;;;;5073246;28;20051;-74
2022/08/28 05:18:12;;;;;;;7.57;1.52;;;12.20;99.90;;;;;;5072917;28;20125;-71
2022/08/28 05:20:40;;;;;;;6.22;1.67;;;12.90;99.90;;;;;;5073201;28;20040;-73
2022/08/28 05:23:08;;;;;;;4.78;1.50;;;14.20;99.90;;;;;;5071424;28;20048;-73
2022/08/28 05:25:40;;;;;;;8.57;2.28;;;12.90;99.90;;;;;;5070921;28;20500;-72
2022/08/28 05:28:08;;;;;;;4.45;1.38;;;13.00;99.90;;;;;;5072484;28;20056;-72
2022/08/28 05:30:34;;;;;;;6.90;1.63;;;13.00;99.90;;;;;;5071145;28;20045;-72
2022/08/28 05:33:00;;;;;;;4.18;1.48;;;14.30;99.90;;;;;;5070592;28;20101;-71
2022/08/28 05:35:27;;;;;;;6.43;2.08;;;13.10;99.90;;;;;;5071524;28;20033;-71
2022/08/28 05:37:53;;;;;;;3.25;1.83;;;13.20;99.90;;;;;;5071538;28;20040;-71
2022/08/28 05:40:21;;;;;;;7.05;2.03;;;14.50;99.90;;;;;;5070323;28;20088;-71
2022/08/28 05:42:48;;;;;;;7.85;1.67;;;14.10;99.90;;;;;;5072680;28;20044;-71
2022/08/28 05:45:13;;;;;;;6.90;1.80;;;14.20;99.90;;;;;;5071672;28;20040;-71
2022/08/28 05:47:39;;;;;;;8.50;1.90;;;14.20;99.90;;;;;;5071807;28;20484;-72
2022/08/28 05:50:07;;;;;;;6.63;1.50;;;14.20;99.90;;;;;;5072425;28;20036;-71
2022/08/28 05:52:33;;;;;;;8.52;1.80;;;13.40;99.90;;;;;;5072783;28;20059;-73
2022/08/28 05:54:59;;;;;;;6.65;2.13;;;14.60;99.90;;;;;;5072035;28;20051;-72
2022/08/28 05:57:25;;;;;;;8.93;2.28;;;13.40;99.90;;;;;;5072309;28;20036;-71
2022/08/28 05:59:52;;;;;;;6.75;1.65;;;13.50;99.90;;;;;;5071277;28;20037;-72
2022/08/28 06:02:18;;;;;;;9.98;1.90;;;13.50;99.90;;;;;;5072190;28;20049;-71
2022/08/28 06:04:44;;;;;;;3.97;1.33;;;13.60;99.90;;;;;;5071071;28;20055;-73
2022/08/28 06:07:12;;;;;;;7.68;1.70;;;13.60;99.90;;;;;;5071467;28;20082;-72
2022/08/28 06:09:38;;;;;;;3.85;1.50;;;13.70;99.90;;;;;;5071507;28;20043;-72
2022/08/28 06:12:04;;;;;;;7.00;2.40;;;13.70;99.90;;;;;;5071034;28;20032;-71
2022/08/28 06:14:30;;;;;;;9.32;1.77;;;13.90;99.90;;;;;;5071267;28;20044;-71
2022/08/28 06:16:56;;;;;;;8.52;1.67;;;13.80;99.90;;;;;;5070483;28;20041;-71
2022/08/28 06:19:23;;;;;;;6.57;1.58;;;13.90;99.90;;;;;;5071397;28;20029;-71
2022/08/28 06:21:52;;;;;;;5.15;1.20;;;13.90;99.90;;;;;;5069747;28;20052;-73
2022/08/28 06:24:18;;;;;;;6.45;1.38;;;14.00;99.90;;;;;;5071718;28;20087;-74
2022/08/28 06:26:44;;;;;;;7.47;1.50;;;14.00;99.90;;;;;;5071704;28;20041;-73
2022/08/28 06:29:14;;;;;;;6.18;1.35;;;14.20;99.90;;;;;;5070308;28;20140;-72
2022/08/28 06:31:40;;;;;;;8.65;1.90;;;14.20;99.90;;;;;;5070313;28;20135;-72
2022/08/28 06:34:07;;;;;;;6.18;0.98;;;14.30;99.90;;;;;;5071407;28;20127;-72
2022/08/28 06:36:36;;;;;;;4.72;1.23;;;14.80;99.90;;;;;;5069529;28;20048;-72
2022/08/28 06:39:03;;;;;;;6.82;1.60;;;14.40;99.90;;;;;;5071070;28;20080;-72
2022/08/28 06:41:30;;;;;;;6.57;1.23;;;14.50;99.90;;;;;;5070225;28;20119;-71
2022/08/28 06:43:57;;;;;;;11.32;2.00;;;14.60;99.90;;;;;;5070698;28;20048;-72
2022/08/28 06:46:23;;;;;;;8.15;1.63;;;15.30;99.90;;;;;;5071618;28;20044;-73
2022/08/28 06:48:50;;;;;;;8.57;1.30;;;14.80;99.90;;;;;;5071563;28;20051;-71
2022/08/28 06:51:16;;;;;;;8.25;1.50;;;14.80;99.90;;;;;;5069111;28;20056;-74
2022/08/28 06:53:42;;;;;;;9.30;1.60;;;15.40;99.90;;;;;;5071299;28;20036;-74
2022/08/28 06:56:14;;;;;;;4.60;1.20;;;15.00;99.90;;;;;;5069401;28;20415;-74
2022/08/28 06:58:42;;;;;;;7.03;1.25;;;15.00;99.90;;;;;;5071113;28;20037;-74
2022/08/28 07:01:27;;;;;;;10.75;1.60;;;15.10;99.90;;;;;;5070770;28;20044;-71
2022/08/28 07:03:55;;;;;;;8.73;2.03;;;15.20;99.90;;;;;;5070704;28;20089;-74
2022/08/28 07:06:22;;;;;;;6.93;1.27;;;15.20;99.90;;;;;;5071200;28;20197;-71
2022/08/28 07:08:49;;;;;;;4.78;1.20;;;15.30;99.90;;;;;;5069686;28;20032;-71
2022/08/28 07:11:27;;;;;;;5.47;1.50;;;15.40;99.90;;;;;;5070400;28;20051;-72
2022/08/28 07:13:54;;;;;;;5.57;1.05;;;15.40;99.90;;;;;;5071022;28;20068;-72
2022/08/28 07:16:26;;;;;;;10.43;1.95;;;15.60;99.90;;;;;;5071237;28;20040;-71
2022/08/28 07:18:52;;;;;;;2.58;1.00;;;15.60;99.90;;;;;;5070495;28;20072;-72
2022/08/28 07:21:19;;;;;;;6.53;1.20;;;15.60;99.90;;;;;;5069481;28;20120;-72
2022/08/28 07:23:45;;;;;;;6.03;0.90;;;15.70;99.90;;;;;;5072773;28;20552;-72
2022/08/28 07:26:14;;;;;;;5.63;1.38;;;15.80;99.90;;;;;;5074401;28;20120;-73
2022/08/28 07:28:40;;;;;;;6.63;1.13;;;15.80;99.90;;;;;;5074934;28;20430;-73
2022/08/28 07:31:09;;;;;;;7.55;1.10;;;15.90;99.90;;;;;;5072412;28;20070;-72
2022/08/28 07:33:35;;;;;;;5.70;1.10;;;15.90;99.90;;;;;;5075167;28;20056;-74
2022/08/28 07:36:02;;;;;;;10.10;1.75;;;16.00;99.90;;;;;;5073839;28;20036;-73
2022/08/28 07:38:27;;;;;;;5.32;1.23;;;16.10;99.90;;;;;;5074087;28;20044;-72
2022/08/28 07:40:54;;;;;;;4.00;1.27;;;16.10;99.90;;;;;;5074576;28;20033;-74
2022/08/28 07:46:06;;;;;;;4.93;1.13;;;16.20;99.90;;;;;;5074854;28;20045;-71
2022/08/28 07:48:37;;;;;;;4.95;1.38;;;16.30;99.90;;;;;;5074618;28;20082;-71
2022/08/28 07:51:06;;;;;;;5.70;1.50;;;16.40;99.90;;;;;;5073553;28;20527;-71
2022/08/28 07:53:32;;;;;;;7.43;1.48;;;16.40;99.90;;;;;;5074435;28;20048;-71
2022/08/28 07:55:58;;;;;;;4.22;1.63;;;16.40;99.90;;;;;;5074958;28;20090;-71
2022/08/28 07:58:24;;;;;;;5.22;1.27;;;17.30;99.90;;;;;;5073900;28;20435;-71
2022/08/28 08:00:51;;;;;;;6.80;1.38;;;16.50;99.90;;;;;;5074213;28;20041;-72
2022/08/28 08:03:17;;;;;;;3.75;1.35;;;16.60;99.90;;;;;;5074266;28;20400;-72
2022/08/28 08:05:54;;;;;;;5.45;1.40;;;16.70;99.90;;;;;;5073602;28;20036;-73
2022/08/28 08:08:20;;;;;;;4.50;1.02;;;16.70;99.90;;;;;;5074093;28;20087;-74
2022/08/28 08:11:02;;;;;;;5.47;1.38;;;16.80;99.90;;;;;;5074264;28;20068;-73
2022/08/28 08:13:29;;;;;;;8.93;1.60;;;16.90;99.90;;;;;;5074350;28;20488;-72
2022/08/28 08:16:16;;;;;;;6.85;1.55;;;16.90;99.90;;;;;;5075277;28;20096;-74
2022/08/28 08:18:42;;;;;;;7.28;1.33;;;17.00;99.90;;;;;;5065673;28;20032;-72
2022/08/28 08:21:12;;;;;;;10.55;2.00;;;17.00;99.90;;;;;;5073755;28;20523;-74
2022/08/28 08:23:39;;;;;;;10.32;1.60;;;17.10;99.90;;;;;;5073942;28;20492;-74
2022/08/28 08:26:08;;;;;;;5.53;1.42;;;17.10;99.90;;;;;;5073587;28;20037;-74
2022/08/28 08:28:36;;;;;;;5.15;1.17;;;17.20;99.90;;;;;;5073647;28;20394;-73
2022/08/28 08:31:06;;;;;;;6.78;1.50;;;17.30;99.90;;;;;;5074074;28;20093;-74
2022/08/28 08:33:32;;;;;;;5.68;1.48;;;17.30;99.90;;;;;;5072649;28;20056;-72
2022/08/28 08:35:59;;;;;;;5.88;1.02;;;17.50;99.90;;;;;;5073977;28;20028;-74
2022/08/28 08:38:25;;;;;;;4.57;1.38;;;17.50;99.90;;;;;;5073777;28;20401;-73
2022/08/28 08:40:50;;;;;;;3.28;1.10;;;17.60;99.90;;;;;;5072946;28;20040;-73
2022/08/28 08:43:18;;;;;;;5.93;1.00;;;17.70;99.90;;;;;;5073683;28;20178;-72
2022/08/28 08:45:46;;;;;;;9.68;1.55;;;17.70;99.90;;;;;;5065409;28;20468;-74
2022/08/28 08:48:32;;;;;;;8.05;1.52;;;17.80;99.90;;;;;;5072914;28;20052;-74
2022/08/28 08:51:09;;;;;;;5.80;1.15;;;18.00;99.90;;;;;;5073277;28;20040;-71
2022/08/28 08:54:12;;;;;;;6.90;1.70;;;17.80;99.90;;;;;;5073638;28;20093;-72
2022/08/28 08:56:40;;;;;;;4.75;1.10;;;17.90;99.90;;;;;;5061657;28;20135;-71
2022/08/28 08:59:13;;;;;;;3.38;1.40;;;18.00;99.90;;;;;;5073175;28;20044;-72
2022/08/28 09:01:49;;;;;;;2.80;1.20;;;18.00;99.90;;;;;;5071434;28;20045;-71
2022/08/28 09:04:45;;;;;;;5.10;1.63;;;18.10;99.90;;;;;;5073365;28;20040;-71
2022/08/28 09:07:33;;;;;;;5.80;1.40;;;18.20;99.90;;;;;;5068954;28;20507;-72
2022/08/28 09:09:59;;;;;;;5.25;1.48;;;18.10;99.90;;;;;;5059802;28;20052;-74
2022/08/28 09:12:33;;;;;;;4.07;1.20;;;18.20;99.90;;;;;;5073124;28;20044;-73
2022/08/28 09:15:07;;;;;;;2.63;1.08;;;18.20;99.90;;;;;;5072878;28;20094;-72
2022/08/28 09:17:41;;;;;;;6.53;1.40;;;18.30;99.90;;;;;;5071905;28;20598;-72
2022/08/28 09:20:09;;;;;;;8.40;1.42;;;18.60;99.90;;;;;;5071303;28;20043;-74
2022/08/28 09:22:36;;;;;;;5.22;1.65;;;18.30;99.90;;;;;;5071231;28;20052;-73
2022/08/28 09:25:03;;;;;;;6.07;1.60;;;18.40;99.90;;;;;;5071802;28;20098;-74
2022/08/28 09:27:32;;;;;;;7.35;1.25;;;18.30;99.90;;;;;;5071234;28;20396;-72
2022/08/28 09:30:09;;;;;;;7.55;1.48;;;18.30;99.90;;;;;;5071809;28;20052;-72
2022/08/28 09:32:40;;;;;;;3.70;1.02;;;18.30;99.90;;;;;;5072553;28;20037;-75
2022/08/28 09:35:15;;;;;;;6.00;1.63;;;18.40;99.90;;;;;;5072932;28;20035;-74
2022/08/28 09:37:42;;;;;;;5.28;1.70;;;18.40;99.90;;;;;;5071984;28;20131;-75
2022/08/28 09:43:25;;;;;;;11.75;2.47;;;18.50;99.90;;;;;;5072395;28;20064;-73
2022/08/28 09:43:25;;;;;;;3.92;1.38;;;18.80;99.90;;;;;;5068047;28;20037;-75
2022/08/28 09:45:59;;;;;;;7.65;1.30;;;18.40;99.90;;;;;;5063718;28;20082;-72
2022/08/28 09:48:35;;;;;;;4.82;1.52;;;18.30;99.90;;;;;;5072439;28;20094;-72
2022/08/28 09:51:02;;;;;;;5.93;1.20;;;18.40;99.90;;;;;;5046471;28;20036;-73
2022/08/28 09:53:30;;;;;;;6.47;1.65;;;18.40;99.90;;;;;;5072287;28;20044;-72
2022/08/28 09:56:14;;;;;;;4.53;1.33;;;18.50;99.90;;;;;;5072354;28;20044;-74
2022/08/28 09:58:45;;;;;;;;;;;18.60;99.90;;;;;;5070420;28;20051;-73
2022/08/28 10:01:33;;;;;;;5.28;1.30;;;18.70;99.90;;;;;;5072215;28;19921;-74
2022/08/28 10:04:08;;;;;;;6.07;1.35;;;18.70;99.90;;;;;;5064554;28;20092;-73
2022/08/28 10:06:35;;;;;;;10.02;2.55;;;18.70;99.90;;;;;;5072081;28;20048;-73
2022/08/28 10:09:25;;;;;;;5.88;1.30;;;18.70;99.90;;;;;;5070604;28;20119;-73
2022/08/28 10:12:29;;;;;;;5.88;1.20;;;18.70;99.90;;;;;;5070904;28;20512;-73
2022/08/28 10:15:16;;;;;;;4.55;0.82;;;18.70;99.90;;;;;;5063779;28;20089;-72
2022/08/28 10:17:45;;;;;;;4.65;1.52;;;18.80;99.90;;;;;;5071764;28;20044;-74
2022/08/28 10:20:30;;;;;;;3.30;1.30;;;19.30;99.90;;;;;;5070589;28;20093;-74
2022/08/28 10:23:06;;;;;;;5.22;1.50;;;18.90;99.90;;;;;;5063427;28;20045;-73
2022/08/28 10:25:58;;;;;;;4.03;1.55;;;18.90;99.90;;;;;;5071128;28;20090;-72
2022/08/28 10:28:55;;;;;;;7.80;1.75;;;18.80;99.90;;;;;;5070016;28;20555;-76
2022/08/28 10:31:27;;;;;;;5.82;1.60;;;18.80;99.90;;;;;;5067077;28;20435;-76
2022/08/28 10:33:58;;;;;;;3.83;1.15;;;18.80;99.90;;;;;;5071426;28;20051;-74
2022/08/28 10:36:34;;;;;;;2.67;1.27;;;18.80;99.90;;;;;;5071643;28;20045;-73
2022/08/28 10:39:25;;;;;;;4.00;1.42;;;19.10;99.90;;;;;;5063530;28;20539;-74
2022/08/28 10:41:56;;;;;;;7.68;1.45;;;19.00;99.90;;;;;;5071281;28;20071;-73
2022/08/28 10:44:39;;;;;;;10.23;2.13;;;19.10;99.90;;;;;;5071695;28;20134;-74
2022/08/28 10:47:06;;;;;;;5.43;1.45;;;19.20;99.90;;;;;;5063388;28;20040;-73
2022/08/28 10:49:41;;;;;;;7.72;1.42;;;19.20;99.90;;;;;;5070821;28;20040;-74
2022/08/28 10:52:13;;;;;;;6.57;1.60;;;19.30;99.90;;;;;;5064020;28;20049;-74
2022/08/28 10:54:57;;;;;;;5.68;1.15;;;19.30;99.90;;;;;;5070864;28;20036;-74
2022/08/28 10:57:35;;;;;;;7.40;1.63;;;19.30;99.90;;;;;;5071047;28;20507;-75
2022/08/28 11:00:12;;;;;;;4.75;1.55;;;19.30;99.90;;;;;;5063119;28;20079;-73
2022/08/28 11:02:41;;;;;;;6.88;1.52;;;19.40;99.90;;;;;;5070220;28;20407;-72
2022/08/28 11:05:07;;;;;;;7.00;1.40;;;19.50;99.90;;;;;;5071168;28;20036;-74
2022/08/28 11:07:39;;;;;;;7.93;1.30;;;19.50;99.90;;;;;;5070667;28;20504;-75
2022/08/28 11:10:19;;;;;;;2.90;1.05;;;19.60;99.90;;;;;;5067617;28;20037;-73
2022/08/28 11:12:46;;;;;;;11.60;1.15;;;19.80;99.90;;;;;;5071176;28;20040;-75
2022/08/28 11:15:27;;;;;;;4.78;0.93;;;19.90;99.90;;;;;;5070485;28;20033;-75
2022/08/28 11:17:55;;;;;;;4.05;1.00;;;20.00;99.90;;;;;;5071166;28;20457;-75
2022/08/28 11:20:26;;;;;;;4.00;1.10;;;20.10;99.90;;;;;;5070704;28;20119;-74
2022/08/28 11:22:54;;;;;;;2.42;1.38;;;20.10;99.90;;;;;;5070256;28;20086;-70
2022/08/28 11:25:41;;;;;;;8.38;1.65;;;20.10;99.80;;;;;;5070773;28;20032;-70
2022/08/28 11:28:23;;;;;;;3.20;1.23;;;20.10;99.40;;;;;;5062742;28;20083;-74
2022/08/28 11:31:08;;;;;;;5.47;1.30;;;20.20;99.80;;;;;;5069984;28;20056;-74
2022/08/28 11:33:34;;;;;;;4.70;1.17;;;20.30;99.90;;;;;;5069778;28;20064;-76
2022/08/28 11:36:00;;;;;;;2.38;1.15;;;20.40;99.80;;;;;;5068721;28;20138;-77
2022/08/28 11:38:41;;;;;;;7.63;1.55;;;20.50;99.50;;;;;;5070561;28;20044;-76
2022/08/28 11:41:13;;;;;;;6.20;1.42;;;20.70;99.50;;;;;;5062985;28;20049;-76
2022/08/28 11:43:42;;;;;;;6.82;1.38;;;20.80;99.30;;;;;;5070162;28;20032;-75
2022/08/28 11:46:29;;;;;;;5.78;0.93;;;20.80;99.10;;;;;;5062918;28;20048;-75
2022/08/28 11:48:57;;;;;;;5.90;1.10;;;20.90;99.20;;;;;;5070395;28;20043;-75
2022/08/28 11:51:50;;;;;;;6.65;0.98;;;21.00;98.90;;;;;;5070207;28;20075;-78
2022/08/28 11:54:38;;;;;;;6.78;1.45;;;21.00;99.20;;;;;;5064029;28;20490;-77
2022/08/28 11:57:21;;;;;;;4.28;0.77;;;21.10;99.00;;;;;;4715092;28;10000503;-74
2022/08/28 12:00:00;;;;;;;2.88;0.85;;;21.20;99.00;;;;;;5060727;28;20060;-74
2022/08/28 12:02:42;;;;;;;5.20;1.05;;;21.30;98.30;;;;;;5062448;28;20471;-75
2022/08/28 12:05:13;;;;;;;2.55;1.30;;;21.40;98.30;;;;;;5058278;28;20049;-72
2022/08/28 12:07:49;;;;;;;7.15;1.40;;;21.40;98.20;;;;;;4712819;28;10000502;-70
2022/08/28 12:10:25;;;;;;;4.90;1.27;;;21.30;98.10;;;;;;5063502;28;20041;-71
2022/08/28 12:13:01;;;;;;;3.22;1.13;;;21.20;97.70;;;;;;5070474;28;20124;-73
2022/08/28 12:15:26;;;;;;;2.00;0.85;;;21.20;98.10;;;;;;5066077;28;20457;-72
2022/08/28 12:17:58;;;;;;;3.30;1.10;;;21.20;97.90;;;;;;5052994;28;20075;-71
2022/08/28 12:20:35;;;;;;;6.00;1.33;;;21.20;97.80;;;;;;5052402;28;20435;-73
2022/08/28 12:23:23;;;;;;;7.72;1.67;;;21.30;97.60;;;;;;5071311;28;20087;-71
2022/08/28 12:26:05;;;;;;;1.60;1.17;;;21.80;97.80;;;;;;5067242;28;20040;-69
2022/08/28 12:28:39;;;;;;;6.35;1.33;;;21.40;97.70;;;;;;5070564;28;20064;-69
2022/08/28 12:31:14;;;;;;;3.40;1.17;;;21.40;97.40;;;;;;5065582;28;20380;-70
2022/08/28 12:34:02;;;;;;;4.47;1.23;;;21.40;97.60;;;;;;5070344;28;20072;-70
2022/08/28 12:36:28;;;;;;;3.80;1.08;;;21.50;97.40;;;;;;5064135;28;20504;-71
2022/08/28 12:38:57;;;;;;;5.03;1.35;;;21.40;97.40;;;;;;5069753;28;20134;-71
2022/08/28 12:41:23;;;;;;;6.05;1.40;;;21.30;97.30;;;;;;5069163;28;20056;-70
2022/08/28 12:43:54;;;;;;;3.60;1.20;;;21.20;97.70;;;;;;5070452;28;20068;-70
2022/08/28 12:46:27;;;;;;;7.05;1.08;;;21.10;97.90;;;;;;5069943;28;20044;-70
2022/08/28 12:49:00;;;;;;;3.15;0.80;;;21.10;98.10;;;;;;5069134;28;20047;-71
2022/08/28 12:51:31;;;;;;;2.30;0.85;;;21.00;98.10;;;;;;5062664;28;20480;-70
2022/08/28 12:54:00;;;;;;;4.15;1.02;;;21.10;98.20;;;;;;5069962;28;20072;-70
2022/08/28 12:56:28;;;;;;;3.70;1.00;;;21.10;97.80;;;;;;5063526;28;20040;-74
2022/08/28 12:58:55;;;;;;;8.13;1.27;;;21.30;97.80;;;;;;5064245;28;20562;-74
2022/08/28 13:01:30;;;;;;;4.97;1.10;;;21.30;97.40;;;;;;5070237;28;20387;-74
2022/08/28 13:03:58;;;;;;;3.13;1.20;;;21.40;97.60;;;;;;5070373;28;20060;-75
2022/08/28 13:06:33;;;;;;;5.53;1.05;;;21.30;97.60;;;;;;5064308;28;20044;-74